createdAt,value
2017-09-09T00:00:01.492Z,15.63
2017-09-09T00:02:31.700Z,17.00
2017-09-09T00:05:01.114Z,15.87
2017-09-09T00:07:30.551Z,15.67
2017-09-09T00:10:00.740Z,16.90
2017-09-09T00:12:30.365Z,16.07
2017-09-09T00:15:00.539Z,16.37
2017-09-09T00:17:30.185Z,16.67
2017-09-09T00:20:00.127Z,16.50
2017-09-09T00:22:29.433Z,16.20
2017-09-09T00:24:58.756Z,15.03
2017-09-09T00:27:28.554Z,14.17
2017-09-09T00:29:58.077Z,13.97
2017-09-09T00:32:27.525Z,12.20
2017-09-09T00:34:57.048Z,11.83
2017-09-09T00:37:26.297Z,12.27
2017-09-09T00:39:55.737Z,11.43
2017-09-09T00:42:25.777Z,12.90
2017-09-09T00:44:55.181Z,11.97
2017-09-09T00:47:24.479Z,11.20
2017-09-09T00:49:54.632Z,10.60
2017-09-09T00:52:23.894Z,11.83
2017-09-09T00:54:53.124Z,10.60
2017-09-09T00:57:23.242Z,10.00
2017-09-09T00:59:52.516Z,13.00
2017-09-09T01:02:22.534Z,11.47
2017-09-09T01:04:51.820Z,12.07
2017-09-09T01:07:21.747Z,12.00
2017-09-09T01:09:51.956Z,11.63
2017-09-09T01:12:21.231Z,12.20
2017-09-09T01:14:51.866Z,11.87
2017-09-09T01:17:22.007Z,14.30
2017-09-09T01:19:52.155Z,12.27
2017-09-09T01:22:21.338Z,13.00
2017-09-09T01:24:51.506Z,14.30
2017-09-09T01:27:21.957Z,14.33
2017-09-09T01:29:51.246Z,12.53
2017-09-09T01:32:20.395Z,13.30
2017-09-09T01:34:51.114Z,13.77
2017-09-09T01:37:20.566Z,15.63
2017-09-09T01:39:50.470Z,15.33
2017-09-09T01:42:19.571Z,14.50
2017-09-09T01:44:48.757Z,16.47
2017-09-09T01:47:19.097Z,14.33
2017-09-09T01:49:49.041Z,15.30
2017-09-09T01:52:18.237Z,14.53
2017-09-09T01:54:47.569Z,15.93
2017-09-09T01:57:17.479Z,15.27
2017-09-09T01:59:46.631Z,16.73
2017-09-09T02:02:16.108Z,16.77
2017-09-09T02:04:45.229Z,15.73
2017-09-09T02:07:14.372Z,17.27
2017-09-09T02:09:43.893Z,17.30
2017-09-09T02:12:13.032Z,16.90
2017-09-09T02:14:42.153Z,14.97
2017-09-09T02:17:11.398Z,15.77
2017-09-09T02:19:40.655Z,18.57
2017-09-09T02:22:09.877Z,17.93
2017-09-09T02:24:39.995Z,18.70
2017-09-09T02:27:09.110Z,20.27
2017-09-09T02:29:38.237Z,19.27
2017-09-09T02:32:07.536Z,21.17
2017-09-09T02:34:37.469Z,22.13
2017-09-09T02:37:06.859Z,22.17
2017-09-09T02:39:36.108Z,21.87
2017-09-09T02:42:06.074Z,20.93
2017-09-09T02:44:35.237Z,20.17
2017-09-09T02:47:04.706Z,21.60
2017-09-09T02:49:35.546Z,20.50
2017-09-09T02:52:05.037Z,20.87
2017-09-09T02:54:34.202Z,20.60
2017-09-09T02:57:04.153Z,18.53
2017-09-09T02:59:33.295Z,16.47
2017-09-09T03:02:02.626Z,14.50
2017-09-09T03:04:31.754Z,12.40
2017-09-09T03:07:00.879Z,12.17
2017-09-09T03:09:30.260Z,12.83
2017-09-09T03:11:59.368Z,12.57
2017-09-09T03:14:28.484Z,10.20
2017-09-09T03:16:57.752Z,12.03
2017-09-09T03:19:26.874Z,11.30
2017-09-09T03:21:56.311Z,12.13
2017-09-09T03:24:25.709Z,14.80
2017-09-09T03:26:55.629Z,14.00
2017-09-09T03:29:24.766Z,14.30
2017-09-09T03:31:54.083Z,14.00
2017-09-09T03:34:24.037Z,14.07
2017-09-09T03:36:53.166Z,14.37
2017-09-09T03:39:22.589Z,14.73
2017-09-09T03:41:51.831Z,14.97
2017-09-09T03:44:20.994Z,14.80
2017-09-09T03:46:51.165Z,15.70
2017-09-09T03:49:20.310Z,16.00
2017-09-09T03:51:49.592Z,16.77
2017-09-09T03:54:19.293Z,14.97
2017-09-09T03:56:48.425Z,17.73
2017-09-09T03:59:17.583Z,15.87
2017-09-09T04:01:46.897Z,16.90
2017-09-09T04:04:16.083Z,15.60
2017-09-09T04:06:45.385Z,16.37
2017-09-09T04:09:15.483Z,16.63
2017-09-09T04:11:45.500Z,17.63
2017-09-09T04:14:15.471Z,16.33
2017-09-09T04:16:45.110Z,18.77
2017-09-09T04:19:14.354Z,18.17
2017-09-09T04:21:43.749Z,16.80
2017-09-09T04:24:13.401Z,17.87
2017-09-09T04:26:42.666Z,18.07
2017-09-09T04:29:11.940Z,17.97
2017-09-09T04:31:41.443Z,18.83
2017-09-09T04:34:10.735Z,18.33
2017-09-09T04:36:39.861Z,18.80
2017-09-09T04:39:09.170Z,18.93
2017-09-09T04:41:39.117Z,18.77
2017-09-09T04:44:08.401Z,17.70
2017-09-09T04:46:37.646Z,18.40
2017-09-09T04:49:06.736Z,19.47
2017-09-09T04:51:35.937Z,20.13
2017-09-09T04:54:05.431Z,19.20
2017-09-09T04:56:34.642Z,19.17
2017-09-09T04:59:03.758Z,19.50
2017-09-09T05:01:32.940Z,18.77
2017-09-09T05:04:02.108Z,20.00
2017-09-09T05:06:31.251Z,18.33
2017-09-09T05:09:00.591Z,18.70
2017-09-09T05:11:29.737Z,16.97
2017-09-09T05:13:58.880Z,19.10
2017-09-09T05:16:28.110Z,16.80
2017-09-09T05:18:57.987Z,18.17
2017-09-09T05:21:27.114Z,18.27
2017-09-09T05:23:56.927Z,19.10
2017-09-09T05:26:26.024Z,19.60
2017-09-09T05:28:55.129Z,18.50
2017-09-09T05:31:24.593Z,18.23
2017-09-09T05:33:53.796Z,18.30
2017-09-09T05:36:23.085Z,18.77
2017-09-09T05:38:52.360Z,18.63
2017-09-09T05:41:21.574Z,15.93
2017-09-09T05:43:51.625Z,15.90
2017-09-09T05:46:21.494Z,16.77
2017-09-09T05:48:51.784Z,20.63
2017-09-09T05:51:20.913Z,16.90
2017-09-09T05:53:50.365Z,16.10
2017-09-09T05:56:20.228Z,16.17
2017-09-09T05:58:49.424Z,15.30
2017-09-09T06:01:18.997Z,16.00
2017-09-09T06:03:48.235Z,15.17
2017-09-09T06:06:19.620Z,12.67
2017-09-09T06:08:48.826Z,12.97
2017-09-09T06:11:18.035Z,12.27
2017-09-09T06:13:47.416Z,13.33
2017-09-09T06:16:18.485Z,11.00
2017-09-09T06:18:47.757Z,9.70
2017-09-09T06:21:17.176Z,9.37
2017-09-09T06:23:46.892Z,9.10
2017-09-09T06:26:16.803Z,9.20
2017-09-09T06:28:46.250Z,9.60
2017-09-09T06:31:15.677Z,9.20
2017-09-09T06:33:46.846Z,7.73
2017-09-09T06:36:16.452Z,7.47
2017-09-09T06:38:46.474Z,7.00
2017-09-09T06:41:15.876Z,6.93
2017-09-09T06:43:45.483Z,7.50
2017-09-09T06:46:15.722Z,6.97
2017-09-09T06:48:44.852Z,6.80
2017-09-09T06:51:14.915Z,6.20
2017-09-09T06:53:44.062Z,6.30
2017-09-09T06:56:13.216Z,6.53
2017-09-09T06:58:43.283Z,6.27
2017-09-09T07:01:12.514Z,6.57
2017-09-09T07:03:41.618Z,7.13
2017-09-09T07:06:11.009Z,7.07
2017-09-09T07:08:40.104Z,7.23
2017-09-09T07:11:09.222Z,8.50
2017-09-09T07:13:39.295Z,8.17
2017-09-09T07:16:08.518Z,7.70
2017-09-09T07:18:38.453Z,11.67
2017-09-09T07:21:07.722Z,9.90
2017-09-09T07:23:36.997Z,10.80
2017-09-09T07:26:06.102Z,12.23
2017-09-09T07:28:35.417Z,10.87
2017-09-09T07:31:04.655Z,10.33
2017-09-09T07:33:34.080Z,11.00
2017-09-09T07:36:03.628Z,10.30
2017-09-09T07:38:33.090Z,10.00
2017-09-09T07:41:02.456Z,12.47
2017-09-09T07:43:33.154Z,12.00
2017-09-09T07:46:02.304Z,13.80
2017-09-09T07:48:31.483Z,12.97
2017-09-09T07:51:00.784Z,13.50
2017-09-09T07:53:29.893Z,14.87
2017-09-09T07:55:59.772Z,15.30
2017-09-09T07:58:29.380Z,13.80
2017-09-09T08:00:59.298Z,16.33
2017-09-09T08:03:28.442Z,15.63
2017-09-09T08:05:57.772Z,15.53
2017-09-09T08:08:27.055Z,15.60
2017-09-09T08:10:56.387Z,15.63
2017-09-09T08:13:25.883Z,16.73
2017-09-09T08:15:55.962Z,18.60
2017-09-09T08:18:25.112Z,16.13
2017-09-09T08:20:55.066Z,16.57
2017-09-09T08:23:25.454Z,16.57
2017-09-09T08:25:55.901Z,16.87
2017-09-09T08:28:25.932Z,19.40
2017-09-09T08:30:55.101Z,17.53
2017-09-09T08:33:25.222Z,17.63
2017-09-09T08:35:55.724Z,17.57
2017-09-09T08:38:26.504Z,17.53
2017-09-09T08:40:57.712Z,19.03
2017-09-09T08:43:26.965Z,19.20
2017-09-09T08:45:56.477Z,17.90
2017-09-09T08:48:26.415Z,18.60
2017-09-09T08:50:55.638Z,18.37
2017-09-09T08:53:24.973Z,18.70
2017-09-09T08:55:54.103Z,21.07
2017-09-09T08:58:23.261Z,19.30
2017-09-09T09:00:52.608Z,19.10
2017-09-09T09:03:21.854Z,17.80
2017-09-09T09:05:51.312Z,20.03
2017-09-09T09:08:20.814Z,21.30
2017-09-09T09:10:50.125Z,19.20
2017-09-09T09:13:19.417Z,19.13
2017-09-09T09:15:49.070Z,18.73
2017-09-09T09:18:18.315Z,20.03
2017-09-09T09:20:48.417Z,19.57
2017-09-09T09:23:17.747Z,17.90
2017-09-09T09:25:47.868Z,17.73
2017-09-09T09:28:17.317Z,20.57
2017-09-09T09:30:47.206Z,17.30
2017-09-09T09:33:16.592Z,16.50
2017-09-09T09:35:45.825Z,15.60
2017-09-09T09:38:16.353Z,16.13
2017-09-09T09:40:45.687Z,16.33
2017-09-09T09:43:15.068Z,17.10
2017-09-09T09:45:45.581Z,15.30
2017-09-09T09:48:15.203Z,15.37
2017-09-09T09:50:44.907Z,16.90
2017-09-09T09:53:14.292Z,17.63
2017-09-09T09:55:43.538Z,16.10
2017-09-09T09:58:13.068Z,14.20
2017-09-09T10:00:42.355Z,14.33
2017-09-09T10:03:11.608Z,14.10
2017-09-09T10:05:40.706Z,15.80
2017-09-09T10:08:09.965Z,12.63
2017-09-09T10:10:39.059Z,13.40
2017-09-09T10:13:08.163Z,12.20
2017-09-09T10:15:37.421Z,11.23
2017-09-09T10:18:06.543Z,11.27
2017-09-09T10:20:36.606Z,11.70
2017-09-09T10:23:05.922Z,12.57
2017-09-09T10:25:35.961Z,13.60
2017-09-09T10:28:05.977Z,12.37
2017-09-09T10:30:36.340Z,12.70
2017-09-09T10:33:05.476Z,13.77
2017-09-09T10:35:34.577Z,11.83
2017-09-09T10:38:04.000Z,14.60
2017-09-09T10:40:33.198Z,15.60
2017-09-09T10:43:03.085Z,16.20
2017-09-09T10:45:32.331Z,14.53
2017-09-09T10:48:02.252Z,17.90
2017-09-09T10:50:31.405Z,13.47
2017-09-09T10:53:00.756Z,13.53
2017-09-09T10:55:30.186Z,12.70
2017-09-09T10:57:59.298Z,11.40
2017-09-09T11:00:28.601Z,11.47
2017-09-09T11:02:57.739Z,9.47
2017-09-09T11:05:26.976Z,9.80
2017-09-09T11:07:57.026Z,13.70
2017-09-09T11:10:27.033Z,9.70
2017-09-09T11:12:56.292Z,8.77
2017-09-09T11:15:25.941Z,6.97
2017-09-09T11:17:55.145Z,9.20
2017-09-09T11:20:27.161Z,7.63
2017-09-09T11:22:56.406Z,10.27
2017-09-09T11:25:25.557Z,9.10
2017-09-09T11:27:54.906Z,7.60
2017-09-09T11:30:24.186Z,8.30
2017-09-09T11:32:54.098Z,8.70
2017-09-09T11:35:23.534Z,7.93
2017-09-09T11:37:52.716Z,7.70
2017-09-09T11:40:21.910Z,8.50
2017-09-09T11:42:51.229Z,8.47
2017-09-09T11:45:20.447Z,7.83
2017-09-09T11:47:50.427Z,8.10
2017-09-09T11:50:19.967Z,6.73
2017-09-09T11:52:49.233Z,7.07
2017-09-09T11:55:19.249Z,7.40
2017-09-09T11:57:48.496Z,5.80
2017-09-09T12:00:18.479Z,5.87
2017-09-09T12:02:48.636Z,7.77
2017-09-09T12:05:18.434Z,7.17
2017-09-09T12:07:48.624Z,9.40
2017-09-09T12:10:18.582Z,8.00
2017-09-09T12:12:48.073Z,8.80
2017-09-09T12:15:17.321Z,8.30
2017-09-09T12:17:46.649Z,8.93
2017-09-09T12:20:16.991Z,9.63
2017-09-09T12:22:46.279Z,8.70
2017-09-09T12:25:15.477Z,9.20
2017-09-09T12:27:45.144Z,7.77
2017-09-09T12:30:15.271Z,8.03
2017-09-09T12:32:44.573Z,6.13
2017-09-09T12:35:14.089Z,7.77
2017-09-09T12:37:43.495Z,4.90
2017-09-09T12:40:12.637Z,5.37
2017-09-09T12:42:41.866Z,4.57
2017-09-09T12:45:11.010Z,4.30
2017-09-09T12:47:40.094Z,4.20
2017-09-09T12:50:09.551Z,4.27
2017-09-09T12:52:38.630Z,4.10
2017-09-09T12:55:07.776Z,2.90
2017-09-09T12:57:37.195Z,3.50
2017-09-09T13:00:06.348Z,3.93
2017-09-09T13:02:35.581Z,3.20
2017-09-09T13:05:06.019Z,3.90
2017-09-09T13:07:35.220Z,3.63
2017-09-09T13:10:04.653Z,5.00
2017-09-09T13:12:34.170Z,3.77
2017-09-09T13:15:03.292Z,4.70
2017-09-09T13:17:33.167Z,4.20
2017-09-09T13:20:02.582Z,3.23
2017-09-09T13:22:31.715Z,4.57
2017-09-09T13:25:00.895Z,3.53
2017-09-09T13:27:30.194Z,2.70
2017-09-09T13:30:00.725Z,2.97
2017-09-09T13:32:29.900Z,2.87
2017-09-09T13:34:59.421Z,2.20
2017-09-09T13:37:29.349Z,2.20
2017-09-09T13:39:58.642Z,2.20
2017-09-09T13:42:27.895Z,2.07
2017-09-09T13:44:57.810Z,1.80
2017-09-09T13:47:29.954Z,1.80
2017-09-09T13:50:01.434Z,2.53
2017-09-09T13:52:33.235Z,2.13
2017-09-09T13:55:09.744Z,2.30
2017-09-09T13:57:42.777Z,3.17
2017-09-09T14:00:13.128Z,2.00
2017-09-09T14:02:42.449Z,1.83
2017-09-09T14:05:14.328Z,2.13
2017-09-09T14:07:43.866Z,1.73
2017-09-09T14:10:13.294Z,1.10
2017-09-09T14:12:42.517Z,1.67
2017-09-09T14:15:12.118Z,0.97
2017-09-09T14:17:42.201Z,0.93
2017-09-09T14:20:12.879Z,0.90
2017-09-09T14:22:48.712Z,0.90
2017-09-09T14:25:18.682Z,0.80
2017-09-09T14:27:48.392Z,0.70
2017-09-09T14:30:18.532Z,0.90
2017-09-09T14:32:51.576Z,0.90
2017-09-09T14:35:22.835Z,1.03
2017-09-09T14:37:53.368Z,0.60
2017-09-09T14:40:23.472Z,0.90
2017-09-09T14:42:52.727Z,0.93
2017-09-09T14:45:21.856Z,0.70
2017-09-09T14:47:52.414Z,0.80
2017-09-09T14:50:21.660Z,0.90
2017-09-09T14:52:52.117Z,0.80
2017-09-09T14:55:21.369Z,1.07
2017-09-09T14:57:51.438Z,0.90
2017-09-09T15:00:22.319Z,1.00
2017-09-09T15:02:51.445Z,1.00
2017-09-09T15:05:22.547Z,1.00
2017-09-09T15:07:51.872Z,0.70
2017-09-09T15:10:21.556Z,1.00
2017-09-09T15:12:52.002Z,0.90
2017-09-09T15:15:21.254Z,1.30
2017-09-09T15:17:51.336Z,1.00
2017-09-09T15:20:20.675Z,1.20
2017-09-09T15:22:51.366Z,2.40
2017-09-09T15:25:21.722Z,0.90
2017-09-09T15:27:50.978Z,1.30
2017-09-09T15:30:20.282Z,1.37
2017-09-09T15:32:49.595Z,1.40
2017-09-09T15:35:19.133Z,1.20
2017-09-09T15:37:48.811Z,1.43
2017-09-09T15:40:18.154Z,1.23
2017-09-09T15:42:47.303Z,2.03
2017-09-09T15:45:16.542Z,1.57
2017-09-09T15:47:46.435Z,1.20
2017-09-09T15:50:23.241Z,1.83
2017-09-09T15:52:52.441Z,1.57
2017-09-09T15:55:26.279Z,1.73
2017-09-09T15:57:56.125Z,2.13
2017-09-09T16:00:26.126Z,1.40
2017-09-09T16:02:56.709Z,2.57
2017-09-09T16:05:26.804Z,1.87
2017-09-09T16:07:58.886Z,1.53
2017-09-09T16:10:42.369Z,1.33
2017-09-09T16:13:15.266Z,1.60
2017-09-09T16:15:46.047Z,2.20
2017-09-09T16:18:21.198Z,1.90
2017-09-09T16:20:53.556Z,2.20
2017-09-09T16:23:23.747Z,1.50
2017-09-09T16:25:52.866Z,1.20
2017-09-09T16:28:22.039Z,1.33
2017-09-09T16:30:52.046Z,1.20
2017-09-09T16:33:21.177Z,1.67
2017-09-09T16:35:50.355Z,1.70
2017-09-09T16:38:20.297Z,1.50
2017-09-09T16:40:49.458Z,1.10
2017-09-09T16:43:20.029Z,1.90
2017-09-09T16:45:50.087Z,1.70
2017-09-09T16:48:20.229Z,1.40
2017-09-09T16:50:49.460Z,1.00
2017-09-09T16:53:23.594Z,1.40
2017-09-09T16:55:53.683Z,1.40
2017-09-09T16:58:22.964Z,1.57
2017-09-09T17:00:52.281Z,1.40
2017-09-09T17:03:21.773Z,1.30
2017-09-09T17:05:50.890Z,2.10
2017-09-09T17:08:20.975Z,1.63
2017-09-09T17:10:50.181Z,1.70
2017-09-09T17:13:19.364Z,1.63
2017-09-09T17:15:49.973Z,1.67
2017-09-09T17:18:19.186Z,1.80
2017-09-09T17:20:48.491Z,1.70
2017-09-09T17:23:17.796Z,1.53
2017-09-09T17:25:46.903Z,1.50
2017-09-09T17:28:17.031Z,2.20
2017-09-09T17:30:47.298Z,1.77
2017-09-09T17:33:17.292Z,1.30
2017-09-09T17:35:46.521Z,1.70
2017-09-09T17:38:16.100Z,1.60
2017-09-09T17:40:45.767Z,1.50
2017-09-09T17:43:15.493Z,1.27
2017-09-09T17:45:46.373Z,1.60
2017-09-09T17:48:15.800Z,1.63
2017-09-09T17:50:47.179Z,2.87
2017-09-09T17:53:16.325Z,1.90
2017-09-09T17:55:47.540Z,2.13
2017-09-09T17:58:16.774Z,2.73
2017-09-09T18:00:47.193Z,2.30
2017-09-09T18:03:23.977Z,2.80
2017-09-09T18:05:55.189Z,1.90
2017-09-09T18:08:26.055Z,2.20
2017-09-09T18:10:56.788Z,2.90
2017-09-09T18:13:26.575Z,2.27
2017-09-09T18:15:56.389Z,2.33
2017-09-09T18:18:25.624Z,2.13
2017-09-09T18:20:54.707Z,1.93
2017-09-09T18:23:23.993Z,2.20
2017-09-09T18:25:53.151Z,3.07
2017-09-09T18:28:22.367Z,2.00
2017-09-09T18:30:55.286Z,2.90
2017-09-09T18:33:24.751Z,3.10
2017-09-09T18:35:54.395Z,3.57
2017-09-09T18:38:26.714Z,4.67
2017-09-09T18:41:01.935Z,3.23
2017-09-09T18:43:31.067Z,2.67
2017-09-09T18:46:01.098Z,2.70
2017-09-09T18:48:30.397Z,2.53
2017-09-09T18:51:00.654Z,2.50
2017-09-09T18:53:29.750Z,2.37
2017-09-09T18:55:58.851Z,2.43
2017-09-09T18:58:28.315Z,2.10
2017-09-09T19:00:58.250Z,2.40
2017-09-09T19:03:27.349Z,2.97
2017-09-09T19:05:56.680Z,2.77
2017-09-09T19:08:26.581Z,2.03
2017-09-09T19:10:56.545Z,2.63
2017-09-09T19:13:25.844Z,2.30
2017-09-09T19:15:54.951Z,1.87
2017-09-09T19:18:24.817Z,2.20
2017-09-09T19:20:54.838Z,2.67
2017-09-09T19:23:24.898Z,2.77
2017-09-09T19:25:54.230Z,2.93
2017-09-09T19:28:23.401Z,3.20
2017-09-09T19:30:52.609Z,3.27
2017-09-09T19:33:22.706Z,7.67
2017-09-09T19:35:52.589Z,6.47
2017-09-09T19:38:21.749Z,4.60
2017-09-09T19:40:51.155Z,6.07
2017-09-09T19:43:20.278Z,5.30
2017-09-09T19:45:49.384Z,4.50
2017-09-09T19:48:18.866Z,4.57
2017-09-09T19:50:47.962Z,5.93
2017-09-09T19:53:17.065Z,4.50
2017-09-09T19:55:46.237Z,5.67
2017-09-09T19:58:15.430Z,26.70
2017-09-09T20:00:44.526Z,5.30
2017-09-09T20:03:13.748Z,4.40
2017-09-09T20:05:42.891Z,5.83
2017-09-09T20:08:12.968Z,5.50
2017-09-09T20:10:42.369Z,5.30
2017-09-09T20:13:12.353Z,6.30
2017-09-09T20:15:41.688Z,5.67
2017-09-09T20:18:11.191Z,5.57
2017-09-09T20:20:40.460Z,6.03
2017-09-09T20:23:10.608Z,5.43
2017-09-09T20:25:40.546Z,5.30
2017-09-09T20:28:09.825Z,7.27
2017-09-09T20:30:39.177Z,8.03
2017-09-09T20:33:09.189Z,4.47
2017-09-09T20:35:38.524Z,6.27
2017-09-09T20:38:08.568Z,5.30
2017-09-09T20:40:37.982Z,4.87
2017-09-09T20:43:07.278Z,5.53
2017-09-09T20:45:37.801Z,5.80
2017-09-09T20:48:07.182Z,7.67
2017-09-09T20:50:38.024Z,6.97
2017-09-09T20:53:07.461Z,5.10
2017-09-09T20:55:36.940Z,6.53
2017-09-09T20:58:07.099Z,7.03
2017-09-09T21:00:37.719Z,5.33
2017-09-09T21:03:06.995Z,6.00
2017-09-09T21:05:36.906Z,5.07
2017-09-09T21:08:06.291Z,8.20
2017-09-09T21:10:35.472Z,5.30
2017-09-09T21:13:04.604Z,5.33
2017-09-09T21:15:34.030Z,6.10
2017-09-09T21:18:03.143Z,4.60
2017-09-09T21:20:32.231Z,3.90
2017-09-09T21:23:01.391Z,4.90
2017-09-09T21:25:30.529Z,10.90
2017-09-09T21:27:59.767Z,7.60
2017-09-09T21:30:29.176Z,7.33
2017-09-09T21:32:59.306Z,5.33
2017-09-09T21:35:28.485Z,6.50
2017-09-09T21:37:57.889Z,8.27
2017-09-09T21:40:27.148Z,4.67
2017-09-09T21:42:56.244Z,5.83
2017-09-09T21:45:25.650Z,5.80
2017-09-09T21:47:55.613Z,6.60
2017-09-09T21:50:25.641Z,7.90
2017-09-09T21:52:55.625Z,7.10
2017-09-09T21:55:24.833Z,5.63
2017-09-09T21:57:55.477Z,11.00
2017-09-09T22:00:24.916Z,6.80
2017-09-09T22:02:54.065Z,6.27
2017-09-09T22:05:23.193Z,5.43
2017-09-09T22:07:52.451Z,6.30
2017-09-09T22:10:21.796Z,7.00
2017-09-09T22:12:50.878Z,6.83
2017-09-09T22:15:20.250Z,7.20
2017-09-09T22:17:49.546Z,9.57
2017-09-09T22:20:19.786Z,6.67
2017-09-09T22:22:49.487Z,8.50
2017-09-09T22:25:19.218Z,6.97
2017-09-09T22:27:49.122Z,8.43
2017-09-09T22:30:18.536Z,9.07
2017-09-09T22:32:47.733Z,10.40
2017-09-09T22:35:16.921Z,10.17
2017-09-09T22:37:48.286Z,9.27
2017-09-09T22:40:17.498Z,9.53
2017-09-09T22:42:46.726Z,8.10
2017-09-09T22:45:16.071Z,9.37
2017-09-09T22:47:46.028Z,9.37
2017-09-09T22:50:15.283Z,8.43
2017-09-09T22:52:45.909Z,7.80
2017-09-09T22:55:15.175Z,8.93
2017-09-09T22:57:44.430Z,8.63
2017-09-09T23:00:14.450Z,10.20
2017-09-09T23:02:43.926Z,10.50
2017-09-09T23:05:13.613Z,11.47
2017-09-09T23:07:43.506Z,11.07
2017-09-09T23:10:12.809Z,10.73
2017-09-09T23:12:42.226Z,11.67
2017-09-09T23:15:11.566Z,11.37
2017-09-09T23:17:42.006Z,11.70
2017-09-09T23:20:11.469Z,13.70
2017-09-09T23:22:40.979Z,12.67
2017-09-09T23:25:10.484Z,11.50
2017-09-09T23:27:41.044Z,13.07
2017-09-09T23:30:11.233Z,12.83
2017-09-09T23:32:40.841Z,12.80
2017-09-09T23:35:10.372Z,13.57
2017-09-09T23:37:39.815Z,13.37
2017-09-09T23:40:09.128Z,13.63
2017-09-09T23:42:38.331Z,12.60
2017-09-09T23:45:08.092Z,15.50
2017-09-09T23:47:37.336Z,14.53
2017-09-09T23:50:06.995Z,13.90
2017-09-09T23:52:36.784Z,13.80
2017-09-09T23:55:05.944Z,12.43
2017-09-09T23:57:36.574Z,14.60
